Portada
METAR-TAF:

METAR-TAF

Aeroports :

Gibraltar, Gibraltar

latitud: 36-09N, longitud: 005-21W, altitud: 5 m

Observació

L'informe es va fer fa 1 hora i 18 minuts, a les 23:50 UTC
Vent 11 kt del Oest
Temperatura 14°C
Humitat 82%
Pressió 1025 hPa
Visibilitat 10 km o més

METAR: LXGB 192350Z AUTO 27011KT 9999 // NCD 14/11 Q1025

Hora: 02:08 (01:08 UTC)

Pronòstic

L'informe es va fer fa 11 hores i 38 minuts, a les 13:30 UTC
Pronòstic vàlid del 19 a les 15 UTC al 19 a les 22 UTC
Vent 8 kt del Oest/Sud-Oest
Visibilitat 10 km o més
Escasses núvols a una alçada de 3000 ft

TAF: LXGB 191330Z 1915/1922 25008KT 9999 FEW030

Observacions i pronòstics meteorològics de més de 4000 aeroports (METAR i TAF).

Les estacions disponibles són els punts grocs i vermells al mapa.

Posi el ratolí al punt desitjat per veure el nom de l'estació.

Feu clic per veure les observacions i els pronòstics meteorològics.

Per canviar el mapa: feu clic els botons verds amb una creu de color negre per apropar; al botó verd amb un guió per allunyar la imatge; o en les fletxes verdes per a mapes adjacents.


METAR-TAF: